sensor_id;sensor_type;location;lat;lon;timestamp;P1;durP1;ratioP1;P2;durP2;ratioP2
33150;SDS011;19508;42.578;23.416;2022-09-12T00:01:22;6.70;;;5.20;;
33150;SDS011;19508;42.578;23.416;2022-09-12T00:03:55;10.43;;;5.43;;
33150;SDS011;19508;42.578;23.416;2022-09-12T00:06:25;8.85;;;5.53;;
33150;SDS011;19508;42.578;23.416;2022-09-12T00:08:54;7.60;;;5.32;;
33150;SDS011;19508;42.578;23.416;2022-09-12T00:11:22;8.10;;;5.90;;
33150;SDS011;19508;42.578;23.416;2022-09-12T00:13:50;6.00;;;5.05;;
33150;SDS011;19508;42.578;23.416;2022-09-12T00:16:22;8.57;;;5.57;;
33150;SDS011;19508;42.578;23.416;2022-09-12T00:18:49;6.72;;;4.70;;
33150;SDS011;19508;42.578;23.416;2022-09-12T00:21:17;8.82;;;4.97;;
33150;SDS011;19508;42.578;23.416;2022-09-12T00:23:43;6.38;;;4.38;;
33150;SDS011;19508;42.578;23.416;2022-09-12T00:26:09;5.57;;;4.85;;
33150;SDS011;19508;42.578;23.416;2022-09-12T00:28:37;8.65;;;4.57;;
33150;SDS011;19508;42.578;23.416;2022-09-12T00:31:08;5.65;;;4.63;;
33150;SDS011;19508;42.578;23.416;2022-09-12T00:33:37;17.50;;;4.53;;
33150;SDS011;19508;42.578;23.416;2022-09-12T00:36:08;6.55;;;4.20;;
33150;SDS011;19508;42.578;23.416;2022-09-12T00:38:44;9.20;;;4.13;;
33150;SDS011;19508;42.578;23.416;2022-09-12T00:41:16;10.38;;;4.00;;
33150;SDS011;19508;42.578;23.416;2022-09-12T00:43:57;4.22;;;3.30;;
33150;SDS011;19508;42.578;23.416;2022-09-12T00:49:32;10.15;;;3.80;;
33150;SDS011;19508;42.578;23.416;2022-09-12T00:52:27;5.40;;;4.00;;
33150;SDS011;19508;42.578;23.416;2022-09-12T00:55:07;7.60;;;4.68;;
33150;SDS011;19508;42.578;23.416;2022-09-12T00:57:46;7.80;;;4.38;;
33150;SDS011;19508;42.578;23.416;2022-09-12T01:00:59;6.00;;;4.05;;
33150;SDS011;19508;42.578;23.416;2022-09-12T01:03:27;7.22;;;4.70;;
33150;SDS011;19508;42.578;23.416;2022-09-12T01:06:00;9.68;;;4.55;;
33150;SDS011;19508;42.578;23.416;2022-09-12T01:08:40;8.55;;;4.88;;
33150;SDS011;19508;42.578;23.416;2022-09-12T01:11:29;6.35;;;4.20;;
33150;SDS011;19508;42.578;23.416;2022-09-12T01:14:00;20.40;;;5.00;;
33150;SDS011;19508;42.578;23.416;2022-09-12T01:20:19;7.00;;;4.13;;
33150;SDS011;19508;42.578;23.416;2022-09-12T01:35:03;6.15;;;3.60;;
33150;SDS011;19508;42.578;23.416;2022-09-12T01:41:14;3.83;;;3.35;;
33150;SDS011;19508;42.578;23.416;2022-09-12T01:50:51;3.45;;;2.45;;
33150;SDS011;19508;42.578;23.416;2022-09-12T01:53:57;3.83;;;3.10;;
33150;SDS011;19508;42.578;23.416;2022-09-12T01:56:39;4.28;;;3.03;;
33150;SDS011;19508;42.578;23.416;2022-09-12T01:59:14;5.57;;;3.10;;
33150;SDS011;19508;42.578;23.416;2022-09-12T02:01:51;3.38;;;2.70;;
33150;SDS011;19508;42.578;23.416;2022-09-12T02:04:31;5.97;;;3.08;;
33150;SDS011;19508;42.578;23.416;2022-09-12T02:07:22;4.45;;;3.55;;
33150;SDS011;19508;42.578;23.416;2022-09-12T02:10:28;3.47;;;3.08;;
33150;SDS011;19508;42.578;23.416;2022-09-12T02:13:28;7.35;;;4.25;;
33150;SDS011;19508;42.578;23.416;2022-09-12T02:16:08;8.93;;;3.45;;
33150;SDS011;19508;42.578;23.416;2022-09-12T02:18:40;6.20;;;3.20;;
33150;SDS011;19508;42.578;23.416;2022-09-12T02:21:09;4.55;;;3.15;;
33150;SDS011;19508;42.578;23.416;2022-09-12T02:23:36;9.05;;;3.70;;
33150;SDS011;19508;42.578;23.416;2022-09-12T02:26:10;4.07;;;2.97;;
33150;SDS011;19508;42.578;23.416;2022-09-12T02:28:44;5.97;;;3.35;;
33150;SDS011;19508;42.578;23.416;2022-09-12T02:39:07;3.45;;;2.67;;
33150;SDS011;19508;42.578;23.416;2022-09-12T02:41:34;6.95;;;2.67;;
33150;SDS011;19508;42.578;23.416;2022-09-12T02:44:00;3.42;;;2.33;;
33150;SDS011;19508;42.578;23.416;2022-09-12T02:46:30;5.45;;;2.05;;
33150;SDS011;19508;42.578;23.416;2022-09-12T02:49:00;2.80;;;2.20;;
33150;SDS011;19508;42.578;23.416;2022-09-12T02:51:25;7.82;;;2.35;;
33150;SDS011;19508;42.578;23.416;2022-09-12T02:53:51;3.25;;;2.30;;
33150;SDS011;19508;42.578;23.416;2022-09-12T02:56:23;11.55;;;2.25;;
33150;SDS011;19508;42.578;23.416;2022-09-12T02:58:51;2.65;;;2.40;;
33150;SDS011;19508;42.578;23.416;2022-09-12T03:04:46;17.92;;;3.17;;
33150;SDS011;19508;42.578;23.416;2022-09-12T03:10:36;6.75;;;3.05;;
33150;SDS011;19508;42.578;23.416;2022-09-12T03:27:26;2.70;;;2.20;;
33150;SDS011;19508;42.578;23.416;2022-09-12T03:29:56;4.38;;;2.50;;
33150;SDS011;19508;42.578;23.416;2022-09-12T03:35:10;10.85;;;2.72;;
33150;SDS011;19508;42.578;23.416;2022-09-12T03:37:36;5.25;;;2.40;;
33150;SDS011;19508;42.578;23.416;2022-09-12T03:40:03;5.75;;;3.30;;
33150;SDS011;19508;42.578;23.416;2022-09-12T03:42:29;6.35;;;2.50;;
33150;SDS011;19508;42.578;23.416;2022-09-12T03:44:55;8.18;;;2.65;;
33150;SDS011;19508;42.578;23.416;2022-09-12T03:47:21;5.38;;;2.20;;
33150;SDS011;19508;42.578;23.416;2022-09-12T03:49:46;2.20;;;1.80;;
33150;SDS011;19508;42.578;23.416;2022-09-12T03:52:12;4.85;;;2.30;;
33150;SDS011;19508;42.578;23.416;2022-09-12T03:54:37;7.78;;;2.40;;
33150;SDS011;19508;42.578;23.416;2022-09-12T03:57:03;4.47;;;2.30;;
33150;SDS011;19508;42.578;23.416;2022-09-12T03:59:29;10.57;;;2.28;;
33150;SDS011;19508;42.578;23.416;2022-09-12T04:01:55;2.40;;;2.20;;
33150;SDS011;19508;42.578;23.416;2022-09-12T04:04:20;3.97;;;2.60;;
33150;SDS011;19508;42.578;23.416;2022-09-12T04:06:46;8.85;;;2.65;;
33150;SDS011;19508;42.578;23.416;2022-09-12T04:09:11;6.07;;;2.83;;
33150;SDS011;19508;42.578;23.416;2022-09-12T04:11:36;6.50;;;2.83;;
33150;SDS011;19508;42.578;23.416;2022-09-12T04:14:03;2.78;;;2.47;;
33150;SDS011;19508;42.578;23.416;2022-09-12T04:16:28;8.40;;;2.70;;
33150;SDS011;19508;42.578;23.416;2022-09-12T04:18:54;4.22;;;2.72;;
33150;SDS011;19508;42.578;23.416;2022-09-12T04:21:19;4.10;;;2.95;;
33150;SDS011;19508;42.578;23.416;2022-09-12T04:23:46;4.32;;;2.63;;
33150;SDS011;19508;42.578;23.416;2022-09-12T04:26:13;4.55;;;2.45;;
33150;SDS011;19508;42.578;23.416;2022-09-12T04:28:41;7.13;;;3.38;;
33150;SDS011;19508;42.578;23.416;2022-09-12T04:31:08;4.22;;;2.92;;
33150;SDS011;19508;42.578;23.416;2022-09-12T04:33:39;4.60;;;2.55;;
33150;SDS011;19508;42.578;23.416;2022-09-12T04:36:07;3.95;;;3.05;;
33150;SDS011;19508;42.578;23.416;2022-09-12T04:38:36;5.88;;;3.20;;
33150;SDS011;19508;42.578;23.416;2022-09-12T04:41:18;9.65;;;3.00;;
33150;SDS011;19508;42.578;23.416;2022-09-12T04:43:45;6.63;;;3.17;;
33150;SDS011;19508;42.578;23.416;2022-09-12T04:46:12;6.47;;;2.63;;
33150;SDS011;19508;42.578;23.416;2022-09-12T04:48:42;6.43;;;3.38;;
33150;SDS011;19508;42.578;23.416;2022-09-12T04:51:15;6.82;;;3.30;;
33150;SDS011;19508;42.578;23.416;2022-09-12T04:53:46;5.13;;;3.60;;
33150;SDS011;19508;42.578;23.416;2022-09-12T04:56:13;4.05;;;3.47;;
33150;SDS011;19508;42.578;23.416;2022-09-12T04:58:39;5.43;;;3.83;;
33150;SDS011;19508;42.578;23.416;2022-09-12T05:01:15;3.50;;;3.20;;
33150;SDS011;19508;42.578;23.416;2022-09-12T05:03:43;14.63;;;3.53;;
33150;SDS011;19508;42.578;23.416;2022-09-12T05:06:10;6.50;;;3.40;;
33150;SDS011;19508;42.578;23.416;2022-09-12T05:08:37;10.52;;;3.90;;
33150;SDS011;19508;42.578;23.416;2022-09-12T05:11:07;4.38;;;3.90;;
33150;SDS011;19508;42.578;23.416;2022-09-12T05:13:38;15.82;;;8.27;;
33150;SDS011;19508;42.578;23.416;2022-09-12T05:16:05;14.77;;;7.07;;
33150;SDS011;19508;42.578;23.416;2022-09-12T05:18:38;9.93;;;5.63;;
33150;SDS011;19508;42.578;23.416;2022-09-12T05:21:10;11.85;;;3.85;;
33150;SDS011;19508;42.578;23.416;2022-09-12T05:23:39;4.15;;;3.17;;
33150;SDS011;19508;42.578;23.416;2022-09-12T05:26:12;5.43;;;2.75;;
33150;SDS011;19508;42.578;23.416;2022-09-12T05:28:40;6.78;;;3.05;;
33150;SDS011;19508;42.578;23.416;2022-09-12T05:31:11;10.57;;;3.08;;
33150;SDS011;19508;42.578;23.416;2022-09-12T05:33:45;6.15;;;3.00;;
33150;SDS011;19508;42.578;23.416;2022-09-12T05:36:13;8.43;;;3.42;;
33150;SDS011;19508;42.578;23.416;2022-09-12T05:38:47;4.40;;;3.58;;
33150;SDS011;19508;42.578;23.416;2022-09-12T05:41:17;8.50;;;4.20;;
33150;SDS011;19508;42.578;23.416;2022-09-12T05:43:44;8.98;;;3.78;;
33150;SDS011;19508;42.578;23.416;2022-09-12T05:46:12;4.90;;;4.13;;
33150;SDS011;19508;42.578;23.416;2022-09-12T05:48:42;8.40;;;4.80;;
33150;SDS011;19508;42.578;23.416;2022-09-12T05:51:12;11.10;;;3.63;;
33150;SDS011;19508;42.578;23.416;2022-09-12T05:53:54;4.13;;;3.72;;
33150;SDS011;19508;42.578;23.416;2022-09-12T05:56:26;9.13;;;3.90;;
33150;SDS011;19508;42.578;23.416;2022-09-12T05:59:02;10.20;;;4.07;;
33150;SDS011;19508;42.578;23.416;2022-09-12T06:01:30;6.22;;;4.10;;
33150;SDS011;19508;42.578;23.416;2022-09-12T06:04:00;5.50;;;4.35;;
33150;SDS011;19508;42.578;23.416;2022-09-12T06:06:28;7.32;;;5.30;;
33150;SDS011;19508;42.578;23.416;2022-09-12T06:08:56;7.15;;;4.53;;
33150;SDS011;19508;42.578;23.416;2022-09-12T06:11:24;6.70;;;4.82;;
33150;SDS011;19508;42.578;23.416;2022-09-12T06:13:52;8.75;;;4.97;;
33150;SDS011;19508;42.578;23.416;2022-09-12T06:16:18;11.15;;;5.47;;
33150;SDS011;19508;42.578;23.416;2022-09-12T06:18:53;6.20;;;4.35;;
33150;SDS011;19508;42.578;23.416;2022-09-12T06:21:20;7.55;;;4.45;;
33150;SDS011;19508;42.578;23.416;2022-09-12T06:23:46;11.18;;;4.28;;
33150;SDS011;19508;42.578;23.416;2022-09-12T06:26:13;8.95;;;5.53;;
33150;SDS011;19508;42.578;23.416;2022-09-12T06:28:41;6.57;;;4.28;;
33150;SDS011;19508;42.578;23.416;2022-09-12T06:31:11;18.33;;;4.97;;
33150;SDS011;19508;42.578;23.416;2022-09-12T06:33:42;11.57;;;4.57;;
33150;SDS011;19508;42.578;23.416;2022-09-12T06:36:15;6.97;;;4.10;;
33150;SDS011;19508;42.578;23.416;2022-09-12T06:38:43;11.38;;;4.57;;
33150;SDS011;19508;42.578;23.416;2022-09-12T06:41:17;4.78;;;3.90;;
33150;SDS011;19508;42.578;23.416;2022-09-12T06:44:03;4.68;;;3.05;;
33150;SDS011;19508;42.578;23.416;2022-09-12T06:46:29;3.83;;;3.33;;
33150;SDS011;19508;42.578;23.416;2022-09-12T06:48:55;5.57;;;3.58;;
33150;SDS011;19508;42.578;23.416;2022-09-12T06:51:23;5.20;;;3.33;;
33150;SDS011;19508;42.578;23.416;2022-09-12T06:53:49;4.15;;;3.55;;
33150;SDS011;19508;42.578;23.416;2022-09-12T06:56:15;5.18;;;3.33;;
33150;SDS011;19508;42.578;23.416;2022-09-12T06:58:46;10.55;;;4.10;;
33150;SDS011;19508;42.578;23.416;2022-09-12T07:01:16;5.68;;;3.42;;
33150;SDS011;19508;42.578;23.416;2022-09-12T07:03:47;4.03;;;3.67;;
33150;SDS011;19508;42.578;23.416;2022-09-12T07:06:19;7.45;;;3.33;;
33150;SDS011;19508;42.578;23.416;2022-09-12T07:08:53;10.85;;;3.13;;
33150;SDS011;19508;42.578;23.416;2022-09-12T07:11:22;2.90;;;2.63;;
33150;SDS011;19508;42.578;23.416;2022-09-12T07:13:51;4.00;;;3.15;;
33150;SDS011;19508;42.578;23.416;2022-09-12T07:16:20;4.93;;;3.00;;
33150;SDS011;19508;42.578;23.416;2022-09-12T07:18:53;4.18;;;2.95;;
33150;SDS011;19508;42.578;23.416;2022-09-12T07:21:22;7.47;;;3.10;;
33150;SDS011;19508;42.578;23.416;2022-09-12T07:23:48;6.13;;;3.08;;
33150;SDS011;19508;42.578;23.416;2022-09-12T07:26:14;3.53;;;3.13;;
33150;SDS011;19508;42.578;23.416;2022-09-12T07:28:40;8.23;;;3.33;;
33150;SDS011;19508;42.578;23.416;2022-09-12T07:31:16;5.13;;;3.47;;
33150;SDS011;19508;42.578;23.416;2022-09-12T07:33:43;2.60;;;2.40;;
33150;SDS011;19508;42.578;23.416;2022-09-12T07:36:14;3.63;;;2.53;;
33150;SDS011;19508;42.578;23.416;2022-09-12T07:38:41;4.17;;;2.87;;
33150;SDS011;19508;42.578;23.416;2022-09-12T07:41:15;5.55;;;3.03;;
33150;SDS011;19508;42.578;23.416;2022-09-12T07:43:43;4.22;;;2.60;;
33150;SDS011;19508;42.578;23.416;2022-09-12T07:46:09;3.40;;;2.60;;
33150;SDS011;19508;42.578;23.416;2022-09-12T07:48:36;4.07;;;2.63;;
33150;SDS011;19508;42.578;23.416;2022-09-12T07:51:03;3.40;;;2.45;;
33150;SDS011;19508;42.578;23.416;2022-09-12T07:53:33;3.22;;;2.70;;
33150;SDS011;19508;42.578;23.416;2022-09-12T07:56:01;3.35;;;3.05;;
33150;SDS011;19508;42.578;23.416;2022-09-12T07:58:28;3.75;;;2.80;;
33150;SDS011;19508;42.578;23.416;2022-09-12T08:01:08;4.57;;;2.60;;
33150;SDS011;19508;42.578;23.416;2022-09-12T08:03:37;3.05;;;2.63;;
33150;SDS011;19508;42.578;23.416;2022-09-12T08:06:04;3.78;;;2.72;;
33150;SDS011;19508;42.578;23.416;2022-09-12T08:08:31;3.17;;;2.60;;
33150;SDS011;19508;42.578;23.416;2022-09-12T08:10:58;3.42;;;2.65;;
33150;SDS011;19508;42.578;23.416;2022-09-12T08:13:24;4.05;;;2.40;;
33150;SDS011;19508;42.578;23.416;2022-09-12T08:15:50;3.95;;;2.45;;
33150;SDS011;19508;42.578;23.416;2022-09-12T08:18:16;4.30;;;3.28;;
33150;SDS011;19508;42.578;23.416;2022-09-12T08:20:41;8.52;;;2.88;;
33150;SDS011;19508;42.578;23.416;2022-09-12T08:23:07;3.97;;;2.50;;
33150;SDS011;19508;42.578;23.416;2022-09-12T08:25:32;5.72;;;2.88;;
33150;SDS011;19508;42.578;23.416;2022-09-12T08:27:58;3.42;;;2.70;;
33150;SDS011;19508;42.578;23.416;2022-09-12T08:30:26;2.70;;;2.35;;
33150;SDS011;19508;42.578;23.416;2022-09-12T08:32:51;4.20;;;2.50;;
33150;SDS011;19508;42.578;23.416;2022-09-12T08:35:16;3.50;;;2.70;;
33150;SDS011;19508;42.578;23.416;2022-09-12T08:37:42;3.13;;;2.55;;
33150;SDS011;19508;42.578;23.416;2022-09-12T08:40:10;6.22;;;2.50;;
33150;SDS011;19508;42.578;23.416;2022-09-12T08:42:52;2.30;;;1.98;;
33150;SDS011;19508;42.578;23.416;2022-09-12T08:45:37;3.75;;;1.77;;
33150;SDS011;19508;42.578;23.416;2022-09-12T08:48:12;1.77;;;1.67;;
33150;SDS011;19508;42.578;23.416;2022-09-12T08:50:38;5.38;;;2.00;;
33150;SDS011;19508;42.578;23.416;2022-09-12T08:53:15;2.22;;;2.00;;
33150;SDS011;19508;42.578;23.416;2022-09-12T08:55:52;2.47;;;2.10;;
33150;SDS011;19508;42.578;23.416;2022-09-12T08:58:22;4.82;;;2.30;;
33150;SDS011;19508;42.578;23.416;2022-09-12T09:00:56;5.38;;;2.08;;
33150;SDS011;19508;42.578;23.416;2022-09-12T09:20:01;2.33;;;2.00;;
33150;SDS011;19508;42.578;23.416;2022-09-12T09:25:15;4.80;;;2.35;;
33150;SDS011;19508;42.578;23.416;2022-09-12T09:27:50;2.53;;;2.00;;
33150;SDS011;19508;42.578;23.416;2022-09-12T09:30:21;2.20;;;2.00;;
33150;SDS011;19508;42.578;23.416;2022-09-12T09:32:51;3.97;;;2.30;;
33150;SDS011;19508;42.578;23.416;2022-09-12T09:35:30;3.42;;;2.10;;
33150;SDS011;19508;42.578;23.416;2022-09-12T09:38:00;2.45;;;2.20;;
33150;SDS011;19508;42.578;23.416;2022-09-12T09:43:20;3.97;;;2.40;;
33150;SDS011;19508;42.578;23.416;2022-09-12T09:45:48;2.60;;;2.40;;
33150;SDS011;19508;42.578;23.416;2022-09-12T09:50:46;3.45;;;2.10;;
33150;SDS011;19508;42.578;23.416;2022-09-12T09:55:50;2.30;;;2.10;;
33150;SDS011;19508;42.578;23.416;2022-09-12T09:58:32;2.40;;;2.20;;
33150;SDS011;19508;42.578;23.416;2022-09-12T10:01:00;5.53;;;1.98;;
33150;SDS011;19508;42.578;23.416;2022-09-12T10:03:33;2.08;;;1.88;;
33150;SDS011;19508;42.578;23.416;2022-09-12T10:08:43;4.45;;;2.25;;
33150;SDS011;19508;42.578;23.416;2022-09-12T10:16:22;5.13;;;2.15;;
33150;SDS011;19508;42.578;23.416;2022-09-12T10:18:50;2.40;;;2.20;;
33150;SDS011;19508;42.578;23.416;2022-09-12T10:23:45;5.68;;;2.08;;
33150;SDS011;19508;42.578;23.416;2022-09-12T10:26:14;9.90;;;2.40;;
33150;SDS011;19508;42.578;23.416;2022-09-12T10:28:50;3.25;;;2.35;;
33150;SDS011;19508;42.578;23.416;2022-09-12T10:31:22;2.20;;;2.00;;
33150;SDS011;19508;42.578;23.416;2022-09-12T10:33:53;2.33;;;2.10;;
33150;SDS011;19508;42.578;23.416;2022-09-12T10:36:21;4.18;;;2.90;;
33150;SDS011;19508;42.578;23.416;2022-09-12T10:38:57;2.60;;;2.22;;
33150;SDS011;19508;42.578;23.416;2022-09-12T10:41:25;2.58;;;2.33;;
33150;SDS011;19508;42.578;23.416;2022-09-12T10:44:16;2.78;;;2.40;;
33150;SDS011;19508;42.578;23.416;2022-09-12T10:46:50;3.35;;;2.50;;
33150;SDS011;19508;42.578;23.416;2022-09-12T10:51:50;2.50;;;2.03;;
33150;SDS011;19508;42.578;23.416;2022-09-12T10:54:17;2.88;;;2.13;;
33150;SDS011;19508;42.578;23.416;2022-09-12T11:04:59;2.42;;;2.22;;
33150;SDS011;19508;42.578;23.416;2022-09-12T11:07:47;7.93;;;2.75;;
33150;SDS011;19508;42.578;23.416;2022-09-12T11:13:17;2.65;;;2.33;;
33150;SDS011;19508;42.578;23.416;2022-09-12T11:46:01;4.00;;;2.63;;
33150;SDS011;19508;42.578;23.416;2022-09-12T11:49:20;4.78;;;3.20;;
33150;SDS011;19508;42.578;23.416;2022-09-12T11:51:41;4.38;;;3.10;;
33150;SDS011;19508;42.578;23.416;2022-09-12T11:54:23;3.85;;;2.90;;
33150;SDS011;19508;42.578;23.416;2022-09-12T11:57:10;4.63;;;3.38;;
33150;SDS011;19508;42.578;23.416;2022-09-12T11:59:52;6.70;;;3.33;;
33150;SDS011;19508;42.578;23.416;2022-09-12T12:02:26;6.15;;;3.33;;
33150;SDS011;19508;42.578;23.416;2022-09-12T12:07:53;5.85;;;3.40;;
33150;SDS011;19508;42.578;23.416;2022-09-12T12:10:30;6.10;;;3.92;;
33150;SDS011;19508;42.578;23.416;2022-09-12T12:13:01;4.03;;;3.63;;
33150;SDS011;19508;42.578;23.416;2022-09-12T12:15:31;3.45;;;3.00;;
33150;SDS011;19508;42.578;23.416;2022-09-12T12:20:26;3.10;;;2.80;;
33150;SDS011;19508;42.578;23.416;2022-09-12T12:22:52;2.50;;;2.30;;
33150;SDS011;19508;42.578;23.416;2022-09-12T12:27:46;2.25;;;1.95;;
33150;SDS011;19508;42.578;23.416;2022-09-12T12:38:00;2.63;;;2.40;;
33150;SDS011;19508;42.578;23.416;2022-09-12T12:40:27;5.45;;;2.40;;
33150;SDS011;19508;42.578;23.416;2022-09-12T12:43:01;2.65;;;2.38;;
33150;SDS011;19508;42.578;23.416;2022-09-12T12:50:46;3.33;;;2.42;;
33150;SDS011;19508;42.578;23.416;2022-09-12T12:53:20;2.92;;;2.40;;
33150;SDS011;19508;42.578;23.416;2022-09-12T12:55:50;7.53;;;2.20;;
33150;SDS011;19508;42.578;23.416;2022-09-12T12:58:27;3.22;;;2.63;;
33150;SDS011;19508;42.578;23.416;2022-09-12T13:01:13;6.45;;;2.10;;
33150;SDS011;19508;42.578;23.416;2022-09-12T13:06:36;3.20;;;1.90;;
33150;SDS011;19508;42.578;23.416;2022-09-12T13:09:05;1.65;;;1.55;;
33150;SDS011;19508;42.578;23.416;2022-09-12T13:11:35;1.63;;;1.35;;
33150;SDS011;19508;42.578;23.416;2022-09-12T13:16:59;1.40;;;1.30;;
33150;SDS011;19508;42.578;23.416;2022-09-12T13:19:29;1.50;;;1.40;;
33150;SDS011;19508;42.578;23.416;2022-09-12T13:22:03;4.82;;;1.50;;
33150;SDS011;19508;42.578;23.416;2022-09-12T13:24:41;2.28;;;2.00;;
33150;SDS011;19508;42.578;23.416;2022-09-12T13:27:20;7.07;;;2.47;;
33150;SDS011;19508;42.578;23.416;2022-09-12T13:29:48;7.25;;;2.08;;
33150;SDS011;19508;42.578;23.416;2022-09-12T13:32:14;2.20;;;2.00;;
33150;SDS011;19508;42.578;23.416;2022-09-12T13:40:20;4.68;;;2.50;;
33150;SDS011;19508;42.578;23.416;2022-09-12T13:42:48;2.95;;;2.67;;
33150;SDS011;19508;42.578;23.416;2022-09-12T13:45:31;3.72;;;2.90;;
33150;SDS011;19508;42.578;23.416;2022-09-12T13:48:01;3.33;;;2.60;;
33150;SDS011;19508;42.578;23.416;2022-09-12T13:50:35;4.15;;;2.67;;
33150;SDS011;19508;42.578;23.416;2022-09-12T13:53:06;3.88;;;2.63;;
33150;SDS011;19508;42.578;23.416;2022-09-12T13:55:39;4.05;;;2.80;;
33150;SDS011;19508;42.578;23.416;2022-09-12T14:03:38;2.83;;;2.22;;
33150;SDS011;19508;42.578;23.416;2022-09-12T14:11:51;3.00;;;2.28;;
33150;SDS011;19508;42.578;23.416;2022-09-12T14:14:38;2.50;;;2.30;;
33150;SDS011;19508;42.578;23.416;2022-09-12T14:20:10;5.32;;;2.85;;
33150;SDS011;19508;42.578;23.416;2022-09-12T14:25:04;5.65;;;4.00;;
33150;SDS011;19508;42.578;23.416;2022-09-12T14:27:43;3.63;;;3.33;;
33150;SDS011;19508;42.578;23.416;2022-09-12T14:30:24;4.38;;;3.97;;
33150;SDS011;19508;42.578;23.416;2022-09-12T14:40:40;4.80;;;4.35;;
33150;SDS011;19508;42.578;23.416;2022-09-12T14:43:31;5.03;;;4.30;;
33150;SDS011;19508;42.578;23.416;2022-09-12T14:46:03;4.70;;;4.28;;
33150;SDS011;19508;42.578;23.416;2022-09-12T14:48:32;7.45;;;4.70;;
33150;SDS011;19508;42.578;23.416;2022-09-12T14:51:01;4.63;;;4.18;;
33150;SDS011;19508;42.578;23.416;2022-09-12T14:53:32;5.65;;;3.85;;
33150;SDS011;19508;42.578;23.416;2022-09-12T14:58:36;5.40;;;3.80;;
33150;SDS011;19508;42.578;23.416;2022-09-12T15:06:02;5.13;;;3.65;;
33150;SDS011;19508;42.578;23.416;2022-09-12T15:08:30;4.13;;;3.70;;
33150;SDS011;19508;42.578;23.416;2022-09-12T15:10:56;5.53;;;3.50;;
33150;SDS011;19508;42.578;23.416;2022-09-12T15:13:26;7.22;;;3.38;;
33150;SDS011;19508;42.578;23.416;2022-09-12T15:15:56;8.20;;;3.75;;
33150;SDS011;19508;42.578;23.416;2022-09-12T15:18:27;9.10;;;3.65;;
33150;SDS011;19508;42.578;23.416;2022-09-12T15:21:12;5.88;;;3.30;;
33150;SDS011;19508;42.578;23.416;2022-09-12T15:23:46;3.47;;;3.17;;
33150;SDS011;19508;42.578;23.416;2022-09-12T15:26:13;10.00;;;3.60;;
33150;SDS011;19508;42.578;23.416;2022-09-12T15:28:41;3.50;;;3.20;;
33150;SDS011;19508;42.578;23.416;2022-09-12T15:31:28;3.30;;;3.00;;
33150;SDS011;19508;42.578;23.416;2022-09-12T15:33:53;4.43;;;3.45;;
33150;SDS011;19508;42.578;23.416;2022-09-12T15:36:20;6.97;;;3.75;;
33150;SDS011;19508;42.578;23.416;2022-09-12T15:38:49;4.32;;;3.45;;
33150;SDS011;19508;42.578;23.416;2022-09-12T15:41:26;3.40;;;3.10;;
33150;SDS011;19508;42.578;23.416;2022-09-12T15:43:53;4.70;;;3.50;;
33150;SDS011;19508;42.578;23.416;2022-09-12T15:46:20;8.63;;;3.50;;
33150;SDS011;19508;42.578;23.416;2022-09-12T15:48:47;5.35;;;3.63;;
33150;SDS011;19508;42.578;23.416;2022-09-12T15:51:19;5.60;;;4.47;;
33150;SDS011;19508;42.578;23.416;2022-09-12T15:56:12;8.07;;;4.00;;
33150;SDS011;19508;42.578;23.416;2022-09-12T15:58:43;5.88;;;4.15;;
33150;SDS011;19508;42.578;23.416;2022-09-12T16:01:16;7.30;;;3.03;;
33150;SDS011;19508;42.578;23.416;2022-09-12T16:03:44;4.00;;;3.60;;
33150;SDS011;19508;42.578;23.416;2022-09-12T16:06:11;5.35;;;3.88;;
33150;SDS011;19508;42.578;23.416;2022-09-12T16:08:37;6.28;;;3.67;;
33150;SDS011;19508;42.578;23.416;2022-09-12T16:11:07;3.30;;;3.00;;
33150;SDS011;19508;42.578;23.416;2022-09-12T16:13:43;4.43;;;4.03;;
33150;SDS011;19508;42.578;23.416;2022-09-12T16:16:09;10.95;;;4.13;;
33150;SDS011;19508;42.578;23.416;2022-09-12T16:18:35;6.07;;;3.92;;
33150;SDS011;19508;42.578;23.416;2022-09-12T16:21:04;4.18;;;3.72;;
33150;SDS011;19508;42.578;23.416;2022-09-12T16:23:30;4.20;;;3.65;;
33150;SDS011;19508;42.578;23.416;2022-09-12T16:28:22;5.60;;;3.50;;
33150;SDS011;19508;42.578;23.416;2022-09-12T16:31:01;6.03;;;3.63;;
33150;SDS011;19508;42.578;23.416;2022-09-12T16:33:30;6.50;;;3.78;;
33150;SDS011;19508;42.578;23.416;2022-09-12T16:36:00;11.52;;;3.83;;
33150;SDS011;19508;42.578;23.416;2022-09-12T16:38:30;10.68;;;4.18;;
33150;SDS011;19508;42.578;23.416;2022-09-12T16:41:04;4.95;;;4.20;;
33150;SDS011;19508;42.578;23.416;2022-09-12T16:43:32;6.00;;;4.07;;
33150;SDS011;19508;42.578;23.416;2022-09-12T16:46:04;8.35;;;4.38;;
33150;SDS011;19508;42.578;23.416;2022-09-12T16:48:32;6.13;;;4.82;;
33150;SDS011;19508;42.578;23.416;2022-09-12T16:51:03;6.15;;;4.72;;
33150;SDS011;19508;42.578;23.416;2022-09-12T16:53:34;5.95;;;4.50;;
33150;SDS011;19508;42.578;23.416;2022-09-12T16:56:03;5.63;;;4.65;;
33150;SDS011;19508;42.578;23.416;2022-09-12T16:58:35;6.03;;;4.15;;
33150;SDS011;19508;42.578;23.416;2022-09-12T17:01:04;15.70;;;4.45;;
33150;SDS011;19508;42.578;23.416;2022-09-12T17:03:30;5.40;;;4.32;;
33150;SDS011;19508;42.578;23.416;2022-09-12T17:05:59;6.55;;;3.92;;
33150;SDS011;19508;42.578;23.416;2022-09-12T17:08:34;3.72;;;3.42;;
33150;SDS011;19508;42.578;23.416;2022-09-12T17:11:06;5.13;;;4.32;;
33150;SDS011;19508;42.578;23.416;2022-09-12T17:13:33;5.60;;;3.60;;
33150;SDS011;19508;42.578;23.416;2022-09-12T17:15:59;4.22;;;3.83;;
33150;SDS011;19508;42.578;23.416;2022-09-12T17:18:30;4.40;;;4.00;;
33150;SDS011;19508;42.578;23.416;2022-09-12T17:20:56;7.68;;;3.40;;
33150;SDS011;19508;42.578;23.416;2022-09-12T17:23:22;10.50;;;4.53;;
33150;SDS011;19508;42.578;23.416;2022-09-12T17:25:50;13.63;;;4.63;;
33150;SDS011;19508;42.578;23.416;2022-09-12T17:28:16;6.07;;;4.20;;
33150;SDS011;19508;42.578;23.416;2022-09-12T17:30:44;3.30;;;3.00;;
33150;SDS011;19508;42.578;23.416;2022-09-12T17:33:09;5.00;;;3.25;;
33150;SDS011;19508;42.578;23.416;2022-09-12T17:35:36;19.13;;;3.75;;
33150;SDS011;19508;42.578;23.416;2022-09-12T17:38:02;9.70;;;3.03;;
33150;SDS011;19508;42.578;23.416;2022-09-12T17:40:29;4.05;;;3.40;;
33150;SDS011;19508;42.578;23.416;2022-09-12T17:42:58;4.82;;;3.15;;
33150;SDS011;19508;42.578;23.416;2022-09-12T17:45:27;3.70;;;3.40;;
33150;SDS011;19508;42.578;23.416;2022-09-12T17:47:53;7.60;;;3.85;;
33150;SDS011;19508;42.578;23.416;2022-09-12T17:50:19;3.72;;;3.35;;
33150;SDS011;19508;42.578;23.416;2022-09-12T17:52:46;4.53;;;4.13;;
33150;SDS011;19508;42.578;23.416;2022-09-12T17:55:13;4.47;;;3.50;;
33150;SDS011;19508;42.578;23.416;2022-09-12T17:57:39;9.25;;;3.20;;
33150;SDS011;19508;42.578;23.416;2022-09-12T18:00:05;3.28;;;2.97;;
33150;SDS011;19508;42.578;23.416;2022-09-12T18:02:33;7.35;;;3.47;;
33150;SDS011;19508;42.578;23.416;2022-09-12T18:04:59;3.47;;;3.00;;
33150;SDS011;19508;42.578;23.416;2022-09-12T18:07:29;6.25;;;2.60;;
33150;SDS011;19508;42.578;23.416;2022-09-12T18:09:57;3.00;;;2.70;;
33150;SDS011;19508;42.578;23.416;2022-09-12T18:12:23;3.15;;;2.80;;
33150;SDS011;19508;42.578;23.416;2022-09-12T18:14:49;5.78;;;2.83;;
33150;SDS011;19508;42.578;23.416;2022-09-12T18:17:15;8.90;;;3.13;;
33150;SDS011;19508;42.578;23.416;2022-09-12T18:19:41;11.73;;;3.00;;
33150;SDS011;19508;42.578;23.416;2022-09-12T18:22:06;4.93;;;2.70;;
33150;SDS011;19508;42.578;23.416;2022-09-12T18:24:32;4.88;;;2.70;;
33150;SDS011;19508;42.578;23.416;2022-09-12T18:26:57;4.18;;;2.78;;